Time;durP1;ratioP1;P1;durP2;ratioP2;P2;SDS_P1;SDS_P2;PMS_P1;PMS_P2;Temp;Humidity;BMP_temperature;BMP_pressure;BME280_temperature;BME280_humidity;BME280_pressure;Samples;Min_cycle;Max_cycle;Signal;HPM_P1;HPM_P2
2022/12/24 00:00:00;;;;;;;123.00;53.30;;;;;;;6.02;100.00;99885.91;1432830;91;21360;-84
2022/12/24 00:02:26;;;;;;;110.33;51.87;;;;;;;6.00;100.00;99870.74;1441754;91;21545;-82
2022/12/24 00:04:53;;;;;;;103.70;51.23;;;;;;;5.98;100.00;99862.98;1429783;91;21346;-81
2022/12/24 00:07:19;;;;;;;92.63;47.20;;;;;;;5.97;100.00;99861.81;1439957;91;22425;-84
2022/12/24 00:09:45;;;;;;;95.20;45.90;;;;;;;5.98;100.00;99866.09;1434169;91;21375;-84
2022/12/24 00:12:11;;;;;;;103.27;48.20;;;;;;;6.00;100.00;99849.73;1422404;91;21331;-84
2022/12/24 00:14:37;;;;;;;90.87;44.80;;;;;;;6.00;100.00;99837.42;1418997;92;22386;-84
2022/12/24 00:17:04;;;;;;;104.00;46.77;;;;;;;5.95;100.00;99837.47;1425857;91;21605;-84
2022/12/24 00:19:30;;;;;;;117.23;50.57;;;;;;;5.91;100.00;99847.38;1438640;91;22414;-83
2022/12/24 00:21:57;;;;;;;91.73;47.13;;;;;;;5.89;100.00;99855.38;1443444;91;22587;-83
2022/12/24 00:24:23;;;;;;;88.77;46.37;;;;;;;5.86;100.00;99846.45;1439600;91;21419;-84
2022/12/24 00:26:50;;;;;;;83.80;45.77;;;;;;;5.86;100.00;99832.49;1434194;91;21331;-84
2022/12/24 00:29:16;;;;;;;87.20;45.53;;;;;;;5.88;100.00;99831.40;1438112;91;21456;-84
2022/12/24 00:31:42;;;;;;;77.20;44.83;;;;;;;5.88;100.00;99827.46;1435485;91;21368;-84
2022/12/24 00:34:08;;;;;;;88.13;49.00;;;;;;;5.91;100.00;99839.98;1435303;91;21346;-84
2022/12/24 00:36:35;;;;;;;82.50;45.40;;;;;;;5.94;100.00;99843.70;1438861;91;21449;-84
2022/12/24 00:39:01;;;;;;;95.30;51.53;;;;;;;5.96;100.00;99850.48;1432192;91;21478;-82
2022/12/24 00:41:28;;;;;;;93.83;51.07;;;;;;;5.96;100.00;99843.91;1429525;91;22366;-85
2022/12/24 00:44:04;;;;;;;85.47;47.03;;;;;;;5.97;100.00;99841.63;1443053;91;21427;-84
2022/12/24 00:46:33;;;;;;;95.10;50.93;;;;;;;5.98;100.00;99839.83;1446797;91;21383;-84
2022/12/24 00:49:00;;;;;;;88.43;46.83;;;;;;;6.00;100.00;99839.22;1438003;91;21375;-82
2022/12/24 00:51:27;;;;;;;87.13;49.93;;;;;;;5.99;100.00;99831.00;1419038;91;21353;-84
2022/12/24 00:53:53;;;;;;;80.00;46.93;;;;;;;6.00;100.00;99836.59;1418082;92;21610;-83
2022/12/24 00:56:21;;;;;;;81.70;46.10;;;;;;;6.01;100.00;99837.79;1417184;92;21383;-83
2022/12/24 00:58:47;;;;;;;86.63;48.80;;;;;;;6.03;100.00;99831.08;1432966;91;21512;-84
2022/12/24 01:01:14;;;;;;;86.23;48.20;;;;;;;6.05;100.00;99830.47;1440601;91;22225;-83
2022/12/24 01:03:41;;;;;;;87.43;51.00;;;;;;;6.06;100.00;99832.12;1442747;91;21508;-84
2022/12/24 01:06:15;;;;;;;94.60;50.90;;;;;;;6.07;100.00;99827.20;1429158;91;21338;-85
2022/12/24 01:08:41;;;;;;;79.87;48.93;;;;;;;6.06;100.00;99825.06;1434583;91;22948;-84
2022/12/24 01:11:10;;;;;;;84.37;48.10;;;;;;;6.07;100.00;99831.14;1438141;91;21427;-85
2022/12/24 01:13:37;;;;;;;82.00;47.40;;;;;;;6.07;100.00;99819.32;1434329;91;22458;-85
2022/12/24 01:16:07;;;;;;;74.33;43.67;;;;;;;6.09;100.00;99822.66;1441356;91;21390;-85
2022/12/24 01:18:33;;;;;;;79.05;45.78;;;;;;;6.12;100.00;99814.50;1436729;90;22330;-85
2022/12/24 01:21:02;;;;;;;72.03;44.17;;;;;;;6.14;100.00;99812.58;1431005;91;21778;-86
2022/12/24 01:23:29;;;;;;;79.13;44.90;;;;;;;6.11;100.00;99798.41;1436566;91;22307;-83
2022/12/24 01:26:03;;;;;;;73.03;42.63;;;;;;;6.05;100.00;99801.57;1436045;91;21434;-85
2022/12/24 01:28:30;;;;;;;73.47;41.97;;;;;;;6.00;100.00;99799.81;1442503;91;22218;-85
2022/12/24 01:30:56;;;;;;;74.67;41.63;;;;;;;5.95;100.00;99794.13;1433857;91;21449;-83
2022/12/24 01:33:22;;;;;;;72.83;42.17;;;;;;;5.88;100.00;99806.45;1426535;91;21443;-84
2022/12/24 01:35:49;;;;;;;67.47;39.90;;;;;;;5.83;100.00;99812.57;1420956;92;21369;-84
2022/12/24 01:38:15;;;;;;;73.30;41.30;;;;;;;5.78;100.00;99822.67;1427868;92;21348;-84
2022/12/24 01:43:31;;;;;;;71.87;41.83;;;;;;;5.77;100.00;99830.66;1436220;91;21435;-80
2022/12/24 01:46:20;;;;;;;75.10;44.65;;;;;;;5.77;100.00;99830.17;1440924;90;22542;-81
2022/12/24 01:48:54;;;;;;;77.30;44.73;;;;;;;5.81;100.00;99838.16;1433637;90;21494;-83
2022/12/24 01:51:35;;;;;;;76.87;44.13;;;;;;;5.87;100.00;99824.50;1435734;91;21413;-82
2022/12/24 01:54:13;;;;;;;59.00;35.75;;;;;;;5.93;100.00;99817.03;1420515;91;21472;-85
2022/12/24 01:56:45;;;;;;;72.33;41.70;;;;;;;5.94;100.00;99810.37;1421115;92;21561;-83
2022/12/24 01:59:15;;;;;;;65.30;40.63;;;;;;;5.91;100.00;99811.09;1431484;92;21650;-84
2022/12/24 02:01:41;;;;;;;67.22;41.50;;;;;;;5.85;100.00;99809.34;1428787;92;21406;-83
2022/12/24 02:04:25;;;;;;;66.57;40.23;;;;;;;5.82;100.00;99803.05;1422336;92;21637;-85
2022/12/24 02:06:51;;;;;;;67.87;38.97;;;;;;;5.80;100.00;99797.08;1434093;91;21563;-85
2022/12/24 02:09:18;;;;;;;64.30;37.23;;;;;;;5.80;100.00;99798.40;1439856;91;21404;-83
2022/12/24 02:11:45;;;;;;;71.77;41.30;;;;;;;5.83;100.00;99790.25;1425711;91;21287;-84
2022/12/24 02:14:13;;;;;;;81.73;43.53;;;;;;;5.83;100.00;99786.31;1439474;91;21346;-82
2022/12/24 02:17:17;;;;;;;75.40;41.77;;;;;;;5.86;100.00;99786.53;1440682;91;21526;-84
2022/12/24 02:20:22;;;;;;;86.23;46.80;;;;;;;5.88;100.00;99796.43;1442263;91;21664;-84
2022/12/24 02:23:19;;;;;;;91.87;48.80;;;;;;;5.86;100.00;99793.09;1433885;91;21500;-85
2022/12/24 02:26:09;;;;;;;79.93;47.60;;;;;;;5.85;100.00;99784.39;1427383;91;21641;-84
2022/12/24 02:28:59;;;;;;;77.63;44.00;;;;;;;5.83;100.00;99775.81;1399405;93;21739;-83
2022/12/24 02:31:57;;;;;;;74.80;41.93;;;;;;;5.81;100.00;99775.13;1435575;91;21397;-84
2022/12/24 02:34:43;;;;;;;57.93;35.53;;;;;;;5.78;100.00;99764.89;1411179;92;21567;-84
2022/12/24 02:37:21;;;;;;;52.60;32.13;;;;;;;5.82;100.00;99772.84;1408978;92;21383;-84
2022/12/24 02:40:07;;;;;;;51.83;31.30;;;;;;;5.89;100.00;99781.02;1410057;92;21598;-84
2022/12/24 02:42:39;;;;;;;48.23;29.87;;;;;;;5.96;100.00;99777.42;1403504;92;21509;-84
2022/12/24 02:45:10;;;;;;;47.57;29.70;;;;;;;5.98;100.00;99766.28;1424993;91;21354;-85
2022/12/24 02:47:38;;;;;;;43.37;28.40;;;;;;;5.96;100.00;99767.74;1433381;91;22551;-83
2022/12/24 02:50:07;;;;;;;42.60;28.20;;;;;;;5.91;100.00;99758.57;1432599;91;21375;-82
2022/12/24 02:52:38;;;;;;;37.43;25.47;;;;;;;5.86;100.00;99758.47;1432127;90;22300;-82
2022/12/24 02:55:25;;;;;;;41.75;26.45;;;;;;;5.84;100.00;99750.37;1438301;91;21310;-84
2022/12/24 02:58:15;;;;;;;39.43;27.30;;;;;;;5.83;100.00;99748.72;1431266;91;21527;-85
2022/12/24 03:01:17;;;;;;;41.73;25.80;;;;;;;5.85;100.00;99737.13;1433572;91;21471;-82
2022/12/24 03:04:07;;;;;;;36.67;25.70;;;;;;;5.88;100.00;99733.40;1435507;91;21427;-82
2022/12/24 03:06:59;;;;;;;40.30;27.13;;;;;;;5.87;100.00;99729.95;1432710;91;21465;-84
2022/12/24 03:10:01;;;;;;;38.73;25.23;;;;;;;5.91;100.00;99734.93;1440891;90;21552;-85
2022/12/24 03:12:39;;;;;;;41.87;26.30;;;;;;;5.96;100.00;99728.83;1432257;91;21339;-84
2022/12/24 03:15:09;;;;;;;42.40;25.67;;;;;;;6.00;100.00;99718.39;1416338;92;21648;-85
2022/12/24 03:17:38;;;;;;;41.20;26.27;;;;;;;6.03;100.00;99721.56;1409489;92;22344;-85
2022/12/24 03:20:08;;;;;;;37.33;26.23;;;;;;;6.03;100.00;99724.19;1408846;92;22374;-82
2022/12/24 03:22:35;;;;;;;43.42;27.70;;;;;;;6.00;100.00;99737.60;1414029;92;21577;-84
2022/12/24 03:25:03;;;;;;;38.57;24.90;;;;;;;5.97;100.00;99737.05;1388247;92;22344;-84
2022/12/24 03:27:31;;;;;;;42.57;27.10;;;;;;;5.98;100.00;99734.75;1444071;91;21412;-84
2022/12/24 03:29:58;;;;;;;37.40;24.70;;;;;;;6.00;100.00;99732.84;1430892;91;21433;-84
2022/12/24 03:32:30;;;;;;;39.60;26.23;;;;;;;6.03;100.00;99715.48;1436943;91;21331;-84
2022/12/24 03:34:56;;;;;;;40.60;26.43;;;;;;;6.10;100.00;99708.73;1436654;91;21389;-85
2022/12/24 03:37:24;;;;;;;37.90;25.67;;;;;;;6.14;100.00;99706.17;1434815;91;22336;-84
2022/12/24 03:39:50;;;;;;;37.20;26.53;;;;;;;6.20;100.00;99709.56;1438165;91;21383;-83
2022/12/24 03:42:17;;;;;;;40.57;27.10;;;;;;;6.23;100.00;99698.77;1430026;91;21531;-83
2022/12/24 03:44:43;;;;;;;41.07;29.40;;;;;;;6.26;100.00;99693.24;1441265;91;22300;-82
2022/12/24 03:47:09;;;;;;;40.17;28.40;;;;;;;6.27;100.00;99681.78;1438154;91;22380;-83
2022/12/24 03:49:35;;;;;;;39.23;27.73;;;;;;;6.26;100.00;99682.73;1440699;91;21435;-85
2022/12/24 03:52:02;;;;;;;43.57;29.87;;;;;;;6.27;100.00;99677.84;1421033;91;22124;-83
2022/12/24 03:54:28;;;;;;;43.53;27.77;;;;;;;6.28;100.00;99680.80;1426478;92;22391;-84
2022/12/24 03:56:54;;;;;;;40.17;26.97;;;;;;;6.32;100.00;99681.34;1427761;92;21383;-84
2022/12/24 03:59:20;;;;;;;42.20;26.20;;;;;;;6.33;100.00;99673.34;1430973;92;21452;-83
2022/12/24 04:01:46;;;;;;;37.57;28.43;;;;;;;6.33;100.00;99666.77;1423719;92;21988;-84
2022/12/24 04:04:13;;;;;;;45.20;30.13;;;;;;;6.32;100.00;99657.70;1420859;92;21361;-84
2022/12/24 04:06:39;;;;;;;49.27;32.83;;;;;;;6.28;100.00;99660.27;1425849;92;21325;-83
2022/12/24 04:09:05;;;;;;;47.57;32.30;;;;;;;6.27;100.00;99655.50;1425272;92;21443;-84
2022/12/24 04:11:32;;;;;;;45.00;31.83;;;;;;;6.28;100.00;99655.84;1419760;92;22300;-85
2022/12/24 04:13:58;;;;;;;44.23;31.57;;;;;;;6.29;100.00;99649.61;1423406;92;21554;-83
2022/12/24 04:16:25;;;;;;;43.77;30.40;;;;;;;6.33;100.00;99647.06;1437595;91;22455;-83
2022/12/24 04:18:51;;;;;;;47.77;31.53;;;;;;;6.35;100.00;99643.45;1433011;91;21421;-84
2022/12/24 04:21:17;;;;;;;51.43;34.03;;;;;;;6.38;100.00;99647.11;1435017;91;22015;-83
2022/12/24 04:23:43;;;;;;;47.13;32.50;;;;;;;6.41;100.00;99642.89;1436171;91;21368;-84
2022/12/24 04:26:12;;;;;;;48.87;34.10;;;;;;;6.40;100.00;99641.24;1437268;91;21390;-83
2022/12/24 04:28:41;;;;;;;46.20;33.03;;;;;;;6.41;100.00;99642.89;1439288;91;22240;-82
2022/12/24 04:31:12;;;;;;;48.57;35.07;;;;;;;6.42;100.00;99629.63;1439639;91;21383;-81
2022/12/24 04:33:38;;;;;;;49.27;34.20;;;;;;;6.43;100.00;99630.45;1431002;91;21309;-84
2022/12/24 04:36:06;;;;;;;54.30;36.40;;;;;;;6.43;100.00;99633.08;1434054;91;22308;-84
2022/12/24 04:38:34;;;;;;;54.47;37.03;;;;;;;6.43;100.00;99630.45;1437573;91;21553;-83
2022/12/24 04:41:13;;;;;;;54.17;37.67;;;;;;;6.41;100.00;99627.12;1441008;91;21419;-83
2022/12/24 04:43:40;;;;;;;58.60;39.43;;;;;;;6.40;100.00;99625.47;1433206;90;21397;-85
2022/12/24 04:46:11;;;;;;;54.83;38.47;;;;;;;6.37;100.00;99623.12;1429086;91;21570;-84
2022/12/24 04:48:37;;;;;;;56.88;38.83;;;;;;;6.36;100.00;99616.19;1440107;91;21397;-84
2022/12/24 04:51:06;;;;;;;53.20;38.70;;;;;;;6.38;100.00;99630.03;1441869;91;21354;-86
2022/12/24 04:53:34;;;;;;;52.70;39.77;;;;;;;6.38;100.00;99626.09;1436383;91;21390;-85
2022/12/24 04:56:01;;;;;;;56.30;36.53;;;;;;;6.42;100.00;99632.73;1435432;91;21434;-85
2022/12/24 04:58:28;;;;;;;50.13;35.70;;;;;;;6.43;100.00;99615.98;1439037;91;21509;-85
2022/12/24 05:00:55;;;;;;;53.40;36.67;;;;;;;6.43;100.00;99617.30;1437733;91;21435;-83
2022/12/24 05:03:21;;;;;;;52.07;38.70;;;;;;;6.42;100.00;99613.03;1441243;91;21406;-86
2022/12/24 05:05:47;;;;;;;51.80;37.40;;;;;;;6.43;100.00;99606.79;1420732;91;21456;-85
2022/12/24 05:08:14;;;;;;;48.03;35.93;;;;;;;6.45;100.00;99602.23;1427084;91;22250;-85
2022/12/24 05:10:40;;;;;;;48.03;33.03;;;;;;;6.46;100.00;99609.13;1415288;91;21472;-83
2022/12/24 05:13:06;;;;;;;59.17;37.73;;;;;;;6.46;100.00;99594.67;1438809;91;21560;-82
2022/12/24 05:15:32;;;;;;;51.13;36.00;;;;;;;6.50;100.00;99603.92;1441508;90;21487;-85
2022/12/24 05:17:58;;;;;;;50.53;36.70;;;;;;;6.49;100.00;99603.59;1422017;91;22376;-84
2022/12/24 05:20:24;;;;;;;52.53;37.10;;;;;;;6.49;100.00;99624.62;1393925;92;21443;-85
2022/12/24 05:28:23;;;;;;;51.53;37.53;;;;;;;6.59;100.00;99635.97;1439555;91;22240;-84
2022/12/24 05:30:50;;;;;;;57.93;38.63;;;;;;;6.62;100.00;99636.14;1438662;91;21376;-84
2022/12/24 05:33:16;;;;;;;59.87;40.77;;;;;;;6.61;100.00;99620.86;1441477;91;21426;-85
2022/12/24 05:35:42;;;;;;;57.23;38.23;;;;;;;6.60;100.00;99607.38;1432323;91;22279;-86
2022/12/24 05:38:08;;;;;;;51.50;39.03;;;;;;;6.56;100.00;99624.42;1438836;91;21338;-85
2022/12/24 05:40:34;;;;;;;52.67;37.47;;;;;;;6.61;100.00;99627.42;1424561;91;21339;-86
2022/12/24 05:43:00;;;;;;;53.37;38.93;;;;;;;6.59;100.00;99638.59;1426563;91;21370;-85
2022/12/24 05:45:28;;;;;;;51.27;36.50;;;;;;;6.62;100.00;99633.05;1434628;91;21978;-85
2022/12/24 05:47:54;;;;;;;54.93;38.93;;;;;;;6.60;100.00;99634.98;1434279;91;21433;-81
2022/12/24 05:50:20;;;;;;;55.73;39.50;;;;;;;6.63;100.00;99641.77;1437692;91;22289;-85
2022/12/24 05:52:46;;;;;;;47.03;31.47;;;;;;;6.66;100.00;99648.88;1430067;91;21412;-86
2022/12/24 05:55:12;;;;;;;52.70;36.73;;;;;;;6.66;100.00;99646.25;1440344;91;21538;-85
2022/12/24 05:57:40;;;;;;;52.07;34.80;;;;;;;6.69;100.00;99653.84;1436033;91;22329;-87
2022/12/24 06:00:08;;;;;;;52.17;37.37;;;;;;;6.75;100.00;99653.28;1441837;91;21450;-86
2022/12/24 06:02:34;;;;;;;53.03;38.27;;;;;;;6.75;100.00;99647.20;1422033;91;21420;-85
2022/12/24 06:05:00;;;;;;;53.37;36.33;;;;;;;6.74;100.00;99660.02;1428171;92;21420;-84
2022/12/24 06:07:26;;;;;;;47.67;34.87;;;;;;;6.74;100.00;99667.90;1423041;92;21509;-84
2022/12/24 06:09:53;;;;;;;51.70;34.90;;;;;;;6.77;100.00;99668.44;1436161;90;22314;-86
2022/12/24 06:12:19;;;;;;;57.17;38.13;;;;;;;6.77;100.00;99668.44;1435907;91;21368;-87
2022/12/24 06:14:45;;;;;;;51.87;34.27;;;;;;;6.77;100.00;99676.33;1436417;90;21397;-88
2022/12/24 06:17:11;;;;;;;51.60;38.00;;;;;;;6.81;100.00;99677.36;1414255;91;21665;-84
2022/12/24 06:19:37;;;;;;;50.50;35.10;;;;;;;6.81;100.00;99670.78;1440992;91;21360;-82
2022/12/24 06:22:04;;;;;;;45.87;33.47;;;;;;;6.83;100.00;99682.00;1438500;91;21464;-86
2022/12/24 06:24:30;;;;;;;60.83;38.77;;;;;;;6.86;100.00;99689.12;1438904;91;22411;-88
2022/12/24 06:26:56;;;;;;;48.20;36.10;;;;;;;6.85;100.00;99686.16;1429409;91;21406;-85
2022/12/24 06:29:22;;;;;;;53.03;38.43;;;;;;;6.83;100.00;99695.98;1425905;91;21435;-86
2022/12/24 06:31:49;;;;;;;62.03;41.00;;;;;;;6.84;100.00;99704.69;1438220;91;21339;-85
2022/12/24 06:34:15;;;;;;;59.03;38.90;;;;;;;6.84;100.00;99707.33;1435201;91;21381;-86
2022/12/24 06:36:41;;;;;;;60.17;42.00;;;;;;;6.81;100.00;99697.09;1439510;91;21338;-85
2022/12/24 06:39:07;;;;;;;54.57;37.33;;;;;;;6.83;100.00;99697.78;1442357;90;21632;-86
2022/12/24 06:41:34;;;;;;;44.93;32.07;;;;;;;6.81;100.00;99698.41;1432960;91;22715;-86
2022/12/24 06:44:00;;;;;;;57.70;36.97;;;;;;;6.84;100.00;99700.75;1442783;91;21345;-83
2022/12/24 06:46:26;;;;;;;53.53;38.80;;;;;;;6.84;100.00;99695.48;1427599;91;21391;-85
2022/12/24 06:48:53;;;;;;;56.33;38.07;;;;;;;6.83;100.00;99691.20;1409664;91;21561;-86
2022/12/24 06:51:20;;;;;;;52.47;35.47;;;;;;;6.84;100.00;99703.37;1437869;90;22225;-85
2022/12/24 06:53:49;;;;;;;59.63;34.17;;;;;;;6.85;100.00;99689.24;1442667;91;21404;-84
2022/12/24 06:56:15;;;;;;;53.33;35.77;;;;;;;6.85;100.00;99693.19;1440634;91;22374;-86
2022/12/24 06:58:43;;;;;;;58.70;40.23;;;;;;;6.84;100.00;99699.43;1416481;91;21397;-87
2022/12/24 07:01:13;;;;;;;56.57;39.33;;;;;;;6.84;100.00;99698.12;1436187;91;21390;-87
2022/12/24 07:03:40;;;;;;;53.00;39.50;;;;;;;6.83;100.00;99716.20;1423368;91;21406;-83
2022/12/24 07:06:15;;;;;;;58.13;41.10;;;;;;;6.82;100.00;99719.78;1431540;91;22255;-83
2022/12/24 07:08:41;;;;;;;51.43;36.53;;;;;;;6.80;100.00;99738.84;1426502;91;22381;-86
2022/12/24 07:11:08;;;;;;;53.70;38.90;;;;;;;6.80;100.00;99758.56;1410699;91;21412;-85
2022/12/24 07:13:34;;;;;;;54.83;40.47;;;;;;;6.75;100.00;99764.23;1433566;91;21634;-86
2022/12/24 07:16:02;;;;;;;60.27;42.53;;;;;;;6.75;100.00;99762.42;1440269;91;22314;-86
2022/12/24 07:18:28;;;;;;;60.40;40.63;;;;;;;6.75;100.00;99766.37;1437954;91;21506;-86
2022/12/24 07:20:55;;;;;;;54.20;38.73;;;;;;;6.73;100.00;99780.16;1420184;91;22316;-86
2022/12/24 07:23:21;;;;;;;63.13;41.87;;;;;;;6.72;100.00;99793.44;1422691;91;21274;-86
2022/12/24 07:25:48;;;;;;;60.63;41.87;;;;;;;6.66;100.00;99773.78;1438929;91;21545;-84
2022/12/24 07:28:14;;;;;;;67.50;46.60;;;;;;;6.66;100.00;99762.44;1437853;91;22320;-86
2022/12/24 07:30:40;;;;;;;62.80;42.67;;;;;;;6.64;100.00;99762.56;1438397;90;21471;-85
2022/12/24 07:33:07;;;;;;;65.90;43.17;;;;;;;6.64;100.00;99753.36;1442839;91;21397;-83
2022/12/24 07:35:34;;;;;;;77.00;50.83;;;;;;;6.60;100.00;99762.99;1435336;91;22306;-87
2022/12/24 07:38:02;;;;;;;87.57;59.63;;;;;;;6.52;100.00;99755.78;1432167;91;21383;-85
2022/12/24 07:40:28;;;;;;;77.50;50.20;;;;;;;6.50;100.00;99750.68;1432555;91;22030;-85
2022/12/24 07:42:54;;;;;;;69.23;46.40;;;;;;;6.54;100.00;99746.80;1441291;91;21450;-84
2022/12/24 07:45:20;;;;;;;65.33;43.43;;;;;;;6.56;100.00;99754.56;1439704;91;21405;-83
2022/12/24 07:47:47;;;;;;;65.87;43.30;;;;;;;6.55;100.00;99755.02;1437923;91;21510;-87
2022/12/24 07:50:15;;;;;;;68.87;47.27;;;;;;;6.56;100.00;99755.88;1441211;91;21376;-85
2022/12/24 07:52:41;;;;;;;71.00;47.80;;;;;;;6.57;100.00;99763.27;1436572;91;21353;-86
2022/12/24 07:55:08;;;;;;;73.77;49.13;;;;;;;6.55;100.00;99762.91;1424869;91;21399;-84
2022/12/24 07:57:34;;;;;;;65.77;45.23;;;;;;;6.52;100.00;99761.87;1428270;91;22256;-83
2022/12/24 08:00:00;;;;;;;68.70;45.03;;;;;;;6.51;100.00;99755.45;1428532;91;21456;-86
2022/12/24 08:02:27;;;;;;;71.33;47.13;;;;;;;6.48;100.00;99743.41;1434847;91;21536;-84
2022/12/24 08:04:53;;;;;;;66.07;45.03;;;;;;;6.49;100.00;99756.06;1430040;91;22314;-85
2022/12/24 08:07:19;;;;;;;64.27;40.57;;;;;;;6.48;100.00;99771.50;1438367;91;21428;-86
2022/12/24 08:09:45;;;;;;;54.77;36.43;;;;;;;6.48;100.00;99784.16;1425385;91;21420;-86
2022/12/24 08:12:11;;;;;;;55.80;36.23;;;;;;;6.48;100.00;99788.59;1427467;92;21451;-86
2022/12/24 08:14:37;;;;;;;55.60;35.67;;;;;;;6.42;100.00;99808.85;1439289;91;21493;-85
2022/12/24 08:17:04;;;;;;;54.53;36.43;;;;;;;6.39;100.00;99803.84;1439000;91;22243;-83
2022/12/24 08:19:30;;;;;;;55.70;37.27;;;;;;;6.36;100.00;99813.31;1439773;91;21345;-86
2022/12/24 08:21:56;;;;;;;53.43;37.27;;;;;;;6.33;100.00;99815.75;1439802;91;21405;-86
2022/12/24 08:24:22;;;;;;;51.80;35.30;;;;;;;6.32;100.00;99816.21;1435681;91;21497;-86
2022/12/24 08:26:48;;;;;;;71.47;43.13;;;;;;;6.32;100.00;99813.58;1434980;91;22074;-87
2022/12/24 08:29:14;;;;;;;65.13;42.47;;;;;;;6.30;100.00;99812.91;1438948;91;22399;-87
2022/12/24 08:31:41;;;;;;;58.73;40.10;;;;;;;6.31;100.00;99824.25;1432913;91;21449;-86
2022/12/24 08:34:08;;;;;;;70.40;45.77;;;;;;;6.30;100.00;99820.80;1425391;91;21622;-86
2022/12/24 08:36:34;;;;;;;79.77;48.00;;;;;;;6.30;100.00;99820.80;1434237;91;21471;-86
2022/12/24 08:39:02;;;;;;;68.20;45.50;;;;;;;6.29;100.00;99819.11;1436123;91;21434;-87
2022/12/24 08:41:31;;;;;;;77.33;48.23;;;;;;;6.29;100.00;99807.28;1430902;91;22674;-86
2022/12/24 08:43:59;;;;;;;62.67;41.53;;;;;;;6.31;100.00;99809.80;1426218;91;22389;-84
2022/12/24 08:46:26;;;;;;;67.93;44.30;;;;;;;6.30;100.00;99810.28;1422650;92;21391;-86
2022/12/24 08:48:53;;;;;;;68.37;45.17;;;;;;;6.28;100.00;99814.83;1423042;91;22581;-86
2022/12/24 08:51:20;;;;;;;65.90;42.17;;;;;;;6.30;100.00;99827.36;1433490;91;21434;-87
2022/12/24 08:53:48;;;;;;;66.60;42.20;;;;;;;6.31;100.00;99839.53;1434514;91;22411;-87
2022/12/24 08:56:15;;;;;;;63.57;39.73;;;;;;;6.26;100.00;99836.47;1426739;91;21420;-86
2022/12/24 08:58:42;;;;;;;55.97;37.70;;;;;;;6.24;100.00;99829.22;1436720;91;21383;-86
2022/12/24 09:01:16;;;;;;;65.87;40.27;;;;;;;6.20;100.00;99836.17;1439023;91;22401;-87
2022/12/24 09:03:43;;;;;;;61.10;38.57;;;;;;;6.17;100.00;99835.96;1437581;91;21316;-86
2022/12/24 09:06:11;;;;;;;60.80;39.97;;;;;;;6.13;100.00;99842.46;1438490;91;21397;-86
2022/12/24 09:08:38;;;;;;;67.77;41.27;;;;;;;6.13;100.00;99842.92;1425591;91;21465;-86
2022/12/24 09:11:13;;;;;;;66.77;40.87;;;;;;;6.14;100.00;99840.17;1436812;91;21510;-85
2022/12/24 09:13:41;;;;;;;66.17;43.83;;;;;;;6.23;100.00;99847.25;1442664;91;21449;-84
2022/12/24 09:16:10;;;;;;;60.83;38.67;;;;;;;6.32;100.00;99843.81;1438909;91;21486;-84
2022/12/24 09:18:38;;;;;;;63.07;40.00;;;;;;;6.41;100.00;99850.55;1438747;91;21647;-86
2022/12/24 09:21:14;;;;;;;57.50;37.97;;;;;;;6.46;100.00;99861.00;1435841;91;22314;-87
2022/12/24 09:23:45;;;;;;;54.60;35.77;;;;;;;6.52;100.00;99867.03;1435315;91;21449;-86
2022/12/24 09:26:22;;;;;;;56.28;36.13;;;;;;;6.55;100.00;99865.44;1420766;91;21377;-87
2022/12/24 09:28:51;;;;;;;52.43;33.17;;;;;;;6.58;100.00;99870.92;1422868;92;22337;-86
2022/12/24 09:31:19;;;;;;;45.67;30.90;;;;;;;6.56;100.00;99868.93;1426356;92;22249;-88
2022/12/24 09:33:47;;;;;;;48.77;31.27;;;;;;;6.52;100.00;99873.60;1438253;91;21412;-88
2022/12/24 09:36:15;;;;;;;46.43;30.07;;;;;;;6.58;100.00;99891.95;1424221;91;21883;-87
2022/12/24 09:38:42;;;;;;;43.27;26.57;;;;;;;6.59;100.00;99896.27;1437187;91;21398;-86
2022/12/24 09:41:23;;;;;;;43.60;27.73;;;;;;;6.58;100.00;99894.58;1439366;91;21545;-88
2022/12/24 09:43:59;;;;;;;48.78;31.15;;;;;;;6.59;100.00;99901.52;1445010;91;21824;-87
2022/12/24 09:46:40;;;;;;;46.90;32.30;;;;;;;6.64;100.00;99898.47;1434842;91;21508;-87
2022/12/24 09:49:19;;;;;;;53.60;32.93;;;;;;;6.62;100.00;99895.99;1445044;91;22251;-87
2022/12/24 09:51:52;;;;;;;47.10;30.97;;;;;;;6.64;100.00;99903.24;1428412;92;21619;-87
2022/12/24 09:54:25;;;;;;;51.90;31.07;;;;;;;6.66;100.00;99914.47;1423689;91;22329;-85
2022/12/24 09:56:56;;;;;;;43.23;29.93;;;;;;;6.68;100.00;99901.20;1427214;91;22731;-87
2022/12/24 09:59:28;;;;;;;47.95;31.90;;;;;;;6.75;100.00;99908.87;1437138;91;21940;-86
2022/12/24 10:01:55;;;;;;;55.17;34.30;;;;;;;6.78;100.00;99912.06;1438476;90;21480;-88
2022/12/24 10:04:28;;;;;;;49.83;31.63;;;;;;;6.83;100.00;99908.20;1441152;91;21434;-87
2022/12/24 10:07:21;;;;;;;53.13;33.57;;;;;;;6.93;100.00;99906.41;1439940;91;21420;-84
2022/12/24 10:10:15;;;;;;;58.87;37.17;;;;;;;7.16;100.00;99903.88;1437782;91;21478;-88
2022/12/24 10:12:56;;;;;;;62.93;37.77;;;;;;;7.38;100.00;99905.88;1420323;91;21427;-87
2022/12/24 10:15:32;;;;;;;45.27;30.27;;;;;;;7.57;100.00;99911.13;1441643;91;21353;-87
2022/12/24 10:18:37;;;;;;;48.87;31.10;;;;;;;7.66;100.00;99914.22;1420524;92;21539;-87
2022/12/24 10:21:56;;;;;;;49.17;30.20;;;;;;;7.74;100.00;99910.03;1425001;91;22079;-87
2022/12/24 10:24:38;;;;;;;51.37;30.23;;;;;;;7.77;100.00;99910.61;1438098;90;21679;-86
2022/12/24 10:27:15;;;;;;;42.20;27.90;;;;;;;7.84;100.00;99916.13;1439347;91;22410;-85
2022/12/24 10:29:50;;;;;;;41.63;27.07;;;;;;;7.81;100.00;99920.37;1439488;91;21435;-87
2022/12/24 10:32:26;;;;;;;44.57;28.50;;;;;;;7.82;100.00;99922.84;1440334;90;21590;-84
2022/12/24 10:34:58;;;;;;;41.80;27.53;;;;;;;7.84;100.00;99918.77;1432180;91;21419;-86
2022/12/24 10:37:28;;;;;;;45.23;30.23;;;;;;;7.82;100.00;99916.25;1422018;91;21390;-87
2022/12/24 10:39:58;;;;;;;40.98;26.95;;;;;;;7.82;100.00;99912.80;1430622;91;21331;-87
2022/12/24 10:42:37;;;;;;;42.73;29.50;;;;;;;7.90;100.00;99910.28;1428332;91;22240;-87
2022/12/24 10:45:06;;;;;;;53.17;34.23;;;;;;;7.99;100.00;99908.59;1439248;90;21575;-89
2022/12/24 10:47:38;;;;;;;49.23;33.37;;;;;;;8.04;100.00;99908.51;1423697;91;21383;-87
2022/12/24 10:50:34;;;;;;;46.97;32.50;;;;;;;8.17;100.00;99904.25;1441025;91;21405;-87
2022/12/24 10:53:13;;;;;;;49.20;31.73;;;;;;;8.29;100.00;99906.21;1435025;90;21597;-87
2022/12/24 10:55:41;;;;;;;47.17;31.13;;;;;;;8.46;100.00;99907.25;1420026;92;22565;-87
2022/12/24 10:58:16;;;;;;;44.20;29.70;;;;;;;8.46;100.00;99916.02;1442916;91;21398;-87
2022/12/24 11:00:50;;;;;;;52.03;31.63;;;;;;;8.38;100.00;99910.60;1437883;91;21560;-87
2022/12/24 11:03:24;;;;;;;48.43;34.70;;;;;;;8.28;100.00;99916.39;1426503;91;21553;-85
2022/12/24 11:06:12;;;;;;;45.27;32.37;;;;;;;8.30;100.00;99921.05;1419339;91;22350;-87
2022/12/24 11:08:43;;;;;;;47.33;32.57;;;;;;;8.33;100.00;99922.07;1420533;91;21594;-86
2022/12/24 11:11:15;;;;;;;38.25;26.12;;;;;;;8.25;100.00;99924.10;1433443;91;21471;-87
2022/12/24 11:13:55;;;;;;;51.50;33.50;;;;;;;8.14;100.00;99934.36;1435608;91;22558;-87
2022/12/24 11:16:34;;;;;;;42.60;28.23;;;;;;;8.07;100.00;99935.06;1440100;91;21324;-87
2022/12/24 11:19:05;;;;;;;47.77;31.93;;;;;;;7.96;100.00;99924.20;1430740;91;21398;-85
2022/12/24 11:21:39;;;;;;;46.40;28.60;;;;;;;7.92;100.00;99921.52;1436779;91;21584;-86
2022/12/24 11:24:27;;;;;;;44.93;29.00;;;;;;;7.91;100.00;99922.48;1427055;91;21443;-88
2022/12/24 11:26:56;;;;;;;48.87;31.93;;;;;;;7.88;100.00;99923.62;1435676;91;21462;-86
2022/12/24 11:29:26;;;;;;;47.23;32.17;;;;;;;7.87;100.00;99922.43;1434540;90;21390;-87
2022/12/24 11:32:11;;;;;;;46.75;31.15;;;;;;;7.84;100.00;99920.91;1438212;91;21605;-86
2022/12/24 11:34:43;;;;;;;40.87;28.10;;;;;;;7.83;100.00;99915.80;1430863;92;21634;-87
2022/12/24 11:37:24;;;;;;;44.33;29.27;;;;;;;7.79;100.00;99913.08;1439995;91;22366;-88
2022/12/24 11:39:58;;;;;;;49.53;30.77;;;;;;;7.77;100.00;99917.20;1441123;91;21530;-85